Pompeii, Michigan
Current Conditions -  °F | °C
As of 11:12 AM on Thursday 30 Oct 2014 (Local Time) from KAMN Reporting Station
Overcast Overcast  
Wind Chill: 42°   Ceiling: 4600
Heat Index: 46°   Visibility: 10mi
Dew Point: 38°   Wind: 7mph
Humidity: 74%   Direction: 210°SSW
Pressure: 30.12"   Gusts: NA
Location:  43.18°N, 84.6°W
Report Text: KAMN 301512Z AUTO 21006KT 10SM OVC046 08/03 A3012 RMK AO2 T00750031
Loading
Personal Weather Stations






























Interactive Weather Map
Tropical Storm Tracking
New forecast layout! Learn more

10-Day Weather Forecast

Advertisements
Track Severe Weather on mobile